EETN/TLL METAR and TAF weather

Enter ICAO airport designator
Station Type Date Time Source
EETN METAR 2022/08/13 11:20 UTC NOAA

EETN 131120Z 32007KT 9999 FEW020 23/17 Q1022 NOSIG


Station Type Date Time Source
EETN Decoded METAR 2022/08/13 11:20 UTC NOAA

Tallinn, Estonia (EETN) 59-24N 024-49E 34M
Aug 13, 2022 - 07:20 AM EDT / 2022.08.13 1120 UTC
Wind: from the NW (320 degrees) at 8 MPH (7 KT):0
Visibility: greater than 7 mile(s):0
Sky conditions: mostly clear
Temperature: 73 F (23 C)
Dew Point: 62 F (17 C)
Relative Humidity: 68%
Pressure (altimeter): 30.18 in. Hg (1022 hPa)
ob: EETN 131120Z 32007KT 9999 FEW020 23/17 Q1022 NOSIG
cycle: 11

Station Type Date Time Source
EETN TAF 2022/08/13 12:33 UTC NOAA

TAF TAF EETN 131130Z 1312/1412 02009KT CAVOK
BECMG 1320/1322 12005KT PROB40
TEMPO 1401/1404 1200 BR BCFG BKN003

Example: see airport list